Time;durP1;ratioP1;P1;durP2;ratioP2;P2;SDS_P1;SDS_P2;PMS_P1;PMS_P2;Temp;Humidity;BMP_temperature;BMP_pressure;BME280_temperature;BME280_humidity;BME280_pressure;Samples;Min_cycle;Max_cycle;Signal;HPM_P1;HPM_P2
2021/12/31 00:01:57;;;;;;;8.13;3.70;;;13.10;99.90;;;;;;5016183;28;90643;-38
2021/12/31 00:04:23;;;;;;;10.20;4.57;;;13.20;99.90;;;;;;5016214;28;90459;-43
2021/12/31 00:06:48;;;;;;;5.10;3.08;;;13.10;99.90;;;;;;5017055;28;87612;-41
2021/12/31 00:09:14;;;;;;;9.35;3.78;;;13.10;99.90;;;;;;5016699;28;89379;-44
2021/12/31 00:11:40;;;;;;;3.95;2.92;;;13.10;99.90;;;;;;5016496;28;89609;-39
2021/12/31 00:14:07;;;;;;;9.90;4.88;;;13.10;99.90;;;;;;5016511;28;89514;-42
2021/12/31 00:16:32;;;;;;;8.25;4.30;;;13.20;99.90;;;;;;5016938;28;87736;-41
2021/12/31 00:18:58;;;;;;;6.45;3.65;;;13.20;99.90;;;;;;5016564;28;90388;-41
2021/12/31 00:21:23;;;;;;;7.78;3.63;;;13.20;99.90;;;;;;5015276;28;89635;-41
2021/12/31 00:23:49;;;;;;;7.75;4.25;;;13.20;99.90;;;;;;5016728;28;89495;-39
2021/12/31 00:26:15;;;;;;;7.30;3.40;;;13.20;99.90;;;;;;5016489;28;88016;-40
2021/12/31 00:28:40;;;;;;;10.20;4.75;;;13.10;99.90;;;;;;5016207;28;90186;-41
2021/12/31 00:31:06;;;;;;;10.02;4.30;;;13.10;99.90;;;;;;5016504;28;89964;-38
2021/12/31 00:33:31;;;;;;;9.93;4.43;;;13.20;99.90;;;;;;5015813;28;89245;-41
2021/12/31 00:35:57;;;;;;;9.02;3.92;;;13.20;99.90;;;;;;5016303;28;88602;-39
2021/12/31 00:38:23;;;;;;;14.07;4.90;;;13.20;99.90;;;;;;5016324;28;90349;-41
2021/12/31 00:40:48;;;;;;;10.05;4.70;;;13.20;99.90;;;;;;5015910;28;90580;-39
2021/12/31 00:43:14;;;;;;;7.82;3.90;;;13.20;99.90;;;;;;5016415;28;89496;-42
2021/12/31 00:45:41;;;;;;;7.53;4.43;;;13.20;99.90;;;;;;5016079;28;87977;-39
2021/12/31 00:48:11;;;;;;;8.90;4.38;;;13.10;99.90;;;;;;5016277;28;90355;-41
2021/12/31 00:50:37;;;;;;;10.27;3.63;;;13.10;99.90;;;;;;5015494;28;91220;-42
2021/12/31 00:53:04;;;;;;;12.60;4.78;;;13.10;99.90;;;;;;5015990;28;90972;-38
2021/12/31 00:55:30;;;;;;;10.05;3.88;;;13.10;99.90;;;;;;5016460;28;88954;-42
2021/12/31 00:57:56;;;;;;;11.38;4.30;;;13.20;99.90;;;;;;5015666;28;90145;-40
2021/12/31 01:00:22;;;;;;;25.67;5.97;;;13.20;99.90;;;;;;5015883;28;88529;-40
2021/12/31 01:02:47;;;;;;;8.18;4.20;;;13.20;99.90;;;;;;5015635;28;88506;-42
2021/12/31 01:05:15;;;;;;;12.45;4.65;;;13.10;99.90;;;;;;5015710;28;88180;-36
2021/12/31 01:07:41;;;;;;;6.60;3.58;;;13.20;99.90;;;;;;5015977;28;90326;-43
2021/12/31 01:10:11;;;;;;;6.25;3.65;;;13.20;99.90;;;;;;5015985;28;88784;-39
2021/12/31 01:12:37;;;;;;;6.38;3.58;;;13.20;99.90;;;;;;5015913;28;89693;-40
2021/12/31 01:15:07;;;;;;;10.88;3.60;;;13.30;99.90;;;;;;5015553;28;88159;-37
2021/12/31 01:17:50;;;;;;;7.85;4.38;;;13.30;99.90;;;;;;5015740;28;90134;-39
2021/12/31 01:20:18;;;;;;;13.02;5.20;;;13.30;99.90;;;;;;5015623;28;90225;-44
2021/12/31 01:22:44;;;;;;;10.93;6.05;;;13.30;99.90;;;;;;4997923;28;89910;-41
2021/12/31 01:25:11;;;;;;;10.18;4.22;;;13.30;99.90;;;;;;5015834;28;87952;-37
2021/12/31 01:27:38;;;;;;;10.32;4.72;;;13.30;99.90;;;;;;5015503;28;90357;-40
2021/12/31 01:30:05;;;;;;;7.68;4.03;;;13.30;99.90;;;;;;5015766;28;90031;-43
2021/12/31 01:32:31;;;;;;;8.90;4.57;;;13.40;99.90;;;;;;5015236;28;90023;-42
2021/12/31 01:34:57;;;;;;;9.63;4.47;;;13.30;99.90;;;;;;5015043;28;88143;-38
2021/12/31 01:37:23;;;;;;;11.25;3.80;;;13.40;99.90;;;;;;5015346;28;90430;-42
2021/12/31 01:39:49;;;;;;;13.20;4.45;;;13.30;99.90;;;;;;5014424;28;90592;-41
2021/12/31 01:42:17;;;;;;;5.95;4.22;;;13.30;99.90;;;;;;5015617;28;89142;-40
2021/12/31 01:44:52;;;;;;;6.90;3.72;;;13.40;99.90;;;;;;5015633;28;88670;-38
2021/12/31 01:47:22;;;;;;;6.18;3.80;;;13.40;99.90;;;;;;5015032;28;90339;-40
2021/12/31 01:49:58;;;;;;;6.88;3.97;;;13.40;99.90;;;;;;5015092;28;89681;-39
2021/12/31 01:52:24;;;;;;;11.15;3.58;;;13.30;99.90;;;;;;5015449;28;88119;-41
2021/12/31 01:54:50;;;;;;;10.70;3.55;;;13.30;99.90;;;;;;5015191;28;87648;-36
2021/12/31 01:57:18;;;;;;;10.00;4.22;;;13.30;99.90;;;;;;5015369;28;90343;-37
2021/12/31 01:59:44;;;;;;;10.60;5.03;;;13.30;99.90;;;;;;5015093;28;89195;-44
2021/12/31 02:02:10;;;;;;;12.60;4.15;;;13.30;99.90;;;;;;4996903;28;91606;-40
2021/12/31 02:04:38;;;;;;;8.32;4.13;;;13.30;99.90;;;;;;5014098;28;88019;-38
2021/12/31 02:07:04;;;;;;;9.60;4.65;;;13.30;99.90;;;;;;5014903;28;90321;-43
2021/12/31 02:09:35;;;;;;;11.45;5.03;;;13.20;99.90;;;;;;4997219;28;89553;-36
2021/12/31 02:12:00;;;;;;;14.38;4.93;;;13.20;99.90;;;;;;5014998;28;88356;-36
2021/12/31 02:14:27;;;;;;;7.82;4.53;;;13.20;99.90;;;;;;5014875;28;89239;-39
2021/12/31 02:16:52;;;;;;;12.35;5.63;;;13.20;99.90;;;;;;5014623;28;88803;-40
2021/12/31 02:19:26;;;;;;;14.82;5.82;;;13.30;99.90;;;;;;5014933;28;89622;-36
2021/12/31 02:21:52;;;;;;;11.70;4.57;;;13.30;99.90;;;;;;5015034;28;89908;-39
2021/12/31 02:24:19;;;;;;;5.50;4.93;;;13.40;99.90;;;;;;5015000;28;88399;-37
2021/12/31 02:26:45;;;;;;;6.95;4.90;;;13.30;99.90;;;;;;5014443;28;90335;-42
2021/12/31 02:29:10;;;;;;;8.65;5.22;;;13.30;99.90;;;;;;5014186;28;90247;-38
2021/12/31 02:31:36;;;;;;;9.82;4.82;;;13.40;99.90;;;;;;5014767;28;92583;-40
2021/12/31 02:34:02;;;;;;;5.78;5.25;;;13.30;99.90;;;;;;5014530;28;87700;-39
2021/12/31 02:36:28;;;;;;;9.13;5.57;;;13.40;99.90;;;;;;5014278;28;90005;-41
2021/12/31 02:38:53;;;;;;;8.07;4.70;;;13.40;99.90;;;;;;5014175;28;89809;-41
2021/12/31 02:41:19;;;;;;;9.35;5.72;;;13.40;99.90;;;;;;5014502;28;89644;-42
2021/12/31 02:43:45;;;;;;;6.55;5.25;;;13.40;99.90;;;;;;5014993;28;87775;-41
2021/12/31 02:46:11;;;;;;;9.63;5.30;;;13.40;99.90;;;;;;5018212;28;90739;-38
2021/12/31 02:48:37;;;;;;;5.93;5.38;;;13.40;99.90;;;;;;5017946;28;89616;-42
2021/12/31 02:51:03;;;;;;;8.93;6.50;;;13.40;99.90;;;;;;5017144;28;88772;-41
2021/12/31 02:53:38;;;;;;;7.35;5.45;;;13.40;99.90;;;;;;5017690;28;88025;-39
2021/12/31 02:56:07;;;;;;;6.90;6.15;;;13.40;99.90;;;;;;5017646;28;90763;-43
2021/12/31 02:58:34;;;;;;;10.63;6.00;;;13.50;99.90;;;;;;5018202;28;89792;-40
2021/12/31 03:01:01;;;;;;;8.70;6.82;;;13.60;99.90;;;;;;5017220;28;90158;-41
2021/12/31 03:03:28;;;;;;;7.22;6.32;;;13.50;99.90;;;;;;5017677;28;88234;-42
2021/12/31 03:05:54;;;;;;;9.27;6.20;;;13.50;99.90;;;;;;5017531;28;90247;-36
2021/12/31 03:08:27;;;;;;;10.35;6.18;;;13.50;99.90;;;;;;5017702;28;89266;-42
2021/12/31 03:10:55;;;;;;;12.43;6.47;;;13.50;99.90;;;;;;5017819;28;89588;-36
2021/12/31 03:13:22;;;;;;;7.72;6.60;;;13.40;99.90;;;;;;5018079;28;87704;-40
2021/12/31 03:15:50;;;;;;;8.38;6.60;;;13.40;99.90;;;;;;5017336;28;90164;-41
2021/12/31 03:18:16;;;;;;;8.10;6.35;;;13.50;99.90;;;;;;5017260;28;90390;-44
2021/12/31 03:20:47;;;;;;;8.73;7.28;;;13.50;99.90;;;;;;5017754;28;90478;-42
2021/12/31 03:23:12;;;;;;;10.40;7.13;;;13.50;99.90;;;;;;5017677;28;87633;-38
2021/12/31 03:25:38;;;;;;;10.30;8.52;;;13.50;99.90;;;;;;5017380;28;90404;-41
2021/12/31 03:28:04;;;;;;;10.60;7.32;;;13.50;99.90;;;;;;5017404;28;90029;-43
2021/12/31 03:30:30;;;;;;;10.05;6.82;;;13.60;99.90;;;;;;5017318;28;88571;-40
2021/12/31 03:32:55;;;;;;;9.32;6.82;;;13.60;99.90;;;;;;5017068;28;88675;-43
2021/12/31 03:35:21;;;;;;;8.98;6.53;;;13.60;99.90;;;;;;5017494;28;89488;-40
2021/12/31 03:37:46;;;;;;;7.53;6.38;;;13.60;99.90;;;;;;5017168;28;89716;-40
2021/12/31 03:40:12;;;;;;;9.57;6.38;;;13.60;99.90;;;;;;5016710;28;89101;-42
2021/12/31 03:42:39;;;;;;;10.63;7.05;;;13.70;99.90;;;;;;5017332;28;89020;-43
2021/12/31 03:45:05;;;;;;;12.23;8.02;;;13.70;99.90;;;;;;5016924;28;88922;-40
2021/12/31 03:47:31;;;;;;;13.23;8.10;;;13.70;99.90;;;;;;5017160;28;90001;-39
2021/12/31 03:49:56;;;;;;;10.30;6.93;;;13.70;99.90;;;;;;5016940;28;89537;-39
2021/12/31 03:52:22;;;;;;;10.20;7.15;;;13.70;99.90;;;;;;5016591;28;88592;-43
2021/12/31 03:54:47;;;;;;;10.98;6.93;;;13.80;99.90;;;;;;5015720;28;95073;-40
2021/12/31 03:57:13;;;;;;;10.90;7.30;;;13.80;99.90;;;;;;5016235;28;89384;-38
2021/12/31 03:59:39;;;;;;;8.35;7.10;;;13.70;99.90;;;;;;5016049;28;89545;-40
2021/12/31 04:02:04;;;;;;;10.18;6.90;;;13.80;99.90;;;;;;5016215;28;87659;-42
2021/12/31 04:04:30;;;;;;;9.38;6.70;;;13.80;99.90;;;;;;5015781;28;90431;-41
2021/12/31 04:06:56;;;;;;;8.52;5.93;;;13.80;99.90;;;;;;5015179;28;90983;-46
2021/12/31 04:09:21;;;;;;;10.40;6.43;;;13.70;99.90;;;;;;5015608;28;90188;-40
2021/12/31 04:11:47;;;;;;;10.25;7.07;;;13.70;99.90;;;;;;5016191;28;89399;-41
2021/12/31 04:14:12;;;;;;;9.60;6.43;;;13.70;99.90;;;;;;5015724;28;90495;-39
2021/12/31 04:16:38;;;;;;;7.45;5.97;;;13.80;99.90;;;;;;5015385;28;89586;-38
2021/12/31 04:19:04;;;;;;;8.57;6.28;;;13.70;99.90;;;;;;5015638;28;90384;-38
2021/12/31 04:21:31;;;;;;;8.38;7.57;;;13.70;99.90;;;;;;4998512;28;87825;-38
2021/12/31 04:24:14;;;;;;;10.50;6.80;;;13.70;99.90;;;;;;5015513;28;90385;-41
2021/12/31 04:26:40;;;;;;;7.72;6.97;;;13.70;99.90;;;;;;5015794;28;89594;-40
2021/12/31 04:29:06;;;;;;;11.85;6.78;;;13.70;99.90;;;;;;5015536;28;89150;-40
2021/12/31 04:31:31;;;;;;;11.57;6.93;;;13.70;99.90;;;;;;5015428;28;88894;-42
2021/12/31 04:33:59;;;;;;;8.82;7.60;;;13.70;99.90;;;;;;5014882;28;90152;-39
2021/12/31 04:36:25;;;;;;;14.47;7.20;;;13.70;99.90;;;;;;5015524;28;89744;-40
2021/12/31 04:38:50;;;;;;;10.85;7.88;;;13.70;99.90;;;;;;5014938;28;89224;-40
2021/12/31 04:41:16;;;;;;;7.00;6.40;;;13.70;99.90;;;;;;5015476;28;87625;-39
2021/12/31 04:43:41;;;;;;;7.22;6.47;;;13.70;99.90;;;;;;5015771;28;90228;-39
2021/12/31 04:46:07;;;;;;;7.65;6.97;;;13.70;99.90;;;;;;5015222;28;89702;-40
2021/12/31 04:48:33;;;;;;;7.03;5.45;;;13.70;99.90;;;;;;4997781;28;88201;-39
2021/12/31 04:50:58;;;;;;;6.70;6.05;;;13.70;99.90;;;;;;5014903;28;88042;-36
2021/12/31 04:53:24;;;;;;;7.57;6.88;;;13.70;99.90;;;;;;5015560;28;90189;-43
2021/12/31 04:55:50;;;;;;;6.53;5.75;;;13.70;99.90;;;;;;5014921;28;90491;-35
2021/12/31 04:58:16;;;;;;;9.20;5.68;;;13.70;99.90;;;;;;5015097;28;90233;-38
2021/12/31 05:00:41;;;;;;;8.00;6.45;;;13.60;99.90;;;;;;5015378;28;87454;-39
2021/12/31 05:03:08;;;;;;;5.97;5.47;;;13.70;99.90;;;;;;5014717;28;90397;-39
2021/12/31 05:05:34;;;;;;;6.00;5.50;;;13.70;99.90;;;;;;5015126;28;89685;-41
2021/12/31 05:08:00;;;;;;;6.72;4.90;;;13.70;99.90;;;;;;5014102;28;89669;-39
2021/12/31 05:10:28;;;;;;;5.15;4.50;;;13.80;99.90;;;;;;5015308;28;87986;-41
2021/12/31 05:12:55;;;;;;;6.32;4.95;;;13.70;99.90;;;;;;5015187;28;89886;-46
2021/12/31 05:15:26;;;;;;;4.63;4.18;;;13.80;99.90;;;;;;5014795;28;90259;-37
2021/12/31 05:17:52;;;;;;;5.97;4.43;;;13.80;99.90;;;;;;5015081;28;88141;-39
2021/12/31 05:20:18;;;;;;;6.90;4.55;;;13.80;99.90;;;;;;5014265;28;88028;-38
2021/12/31 05:22:44;;;;;;;4.70;4.22;;;13.80;99.90;;;;;;5015120;28;90154;-36
2021/12/31 05:25:10;;;;;;;5.72;4.28;;;13.90;99.90;;;;;;5015106;28;89204;-37
2021/12/31 05:27:35;;;;;;;6.63;3.53;;;13.90;99.90;;;;;;5014536;28;89585;-41
2021/12/31 05:30:01;;;;;;;13.18;3.50;;;13.80;99.90;;;;;;5014592;28;87652;-40
2021/12/31 05:32:26;;;;;;;5.35;3.58;;;13.90;99.90;;;;;;5015077;28;88623;-42
2021/12/31 05:34:52;;;;;;;4.93;4.13;;;13.80;99.90;;;;;;5014101;28;92579;-38
2021/12/31 05:37:17;;;;;;;4.85;3.28;;;13.90;99.90;;;;;;5014710;28;89521;-37
2021/12/31 05:39:44;;;;;;;5.95;3.50;;;13.90;99.90;;;;;;5014496;28;87453;-37
2021/12/31 05:42:10;;;;;;;4.32;3.50;;;13.90;99.90;;;;;;5014788;28;90259;-38
2021/12/31 05:44:36;;;;;;;3.35;3.05;;;13.90;99.90;;;;;;5014213;28;90503;-39
2021/12/31 05:47:01;;;;;;;5.18;3.47;;;14.00;99.90;;;;;;5014273;28;90094;-39
2021/12/31 05:49:28;;;;;;;7.15;3.35;;;14.00;99.90;;;;;;5014349;28;87716;-41
2021/12/31 05:51:53;;;;;;;4.28;2.58;;;14.00;99.90;;;;;;5013418;28;90758;-35
2021/12/31 05:54:19;;;;;;;4.78;3.45;;;14.00;99.90;;;;;;5013588;28;90043;-40
2021/12/31 05:56:45;;;;;;;8.45;3.15;;;13.90;99.90;;;;;;5014693;28;89647;-43
2021/12/31 05:59:10;;;;;;;2.88;2.67;;;14.00;99.90;;;;;;5014360;28;90053;-42
2021/12/31 06:01:36;;;;;;;6.57;2.80;;;13.90;99.90;;;;;;5014879;28;88853;-36
2021/12/31 06:04:01;;;;;;;6.18;2.97;;;13.90;99.90;;;;;;5013880;28;89926;-39
2021/12/31 06:06:27;;;;;;;2.88;2.45;;;14.00;99.90;;;;;;5014131;28;89842;-40
2021/12/31 06:08:52;;;;;;;3.45;3.15;;;14.00;99.90;;;;;;5014116;28;88639;-36
2021/12/31 06:11:18;;;;;;;4.38;3.15;;;14.00;99.90;;;;;;5013995;28;90640;-35
2021/12/31 06:13:49;;;;;;;4.28;2.67;;;14.00;99.90;;;;;;5014102;28;89512;-39
2021/12/31 06:16:14;;;;;;;3.20;2.88;;;13.90;99.90;;;;;;5014287;28;89535;-41
2021/12/31 06:18:40;;;;;;;3.15;2.92;;;13.90;99.90;;;;;;5013374;28;89582;-39
2021/12/31 06:21:07;;;;;;;5.10;3.40;;;14.00;99.90;;;;;;5013733;28;91035;-41
2021/12/31 06:23:32;;;;;;;5.32;3.38;;;13.90;99.90;;;;;;5014072;28;89608;-41
2021/12/31 06:25:58;;;;;;;7.72;2.17;;;13.90;99.90;;;;;;5013936;28;89606;-40
2021/12/31 06:28:23;;;;;;;3.50;2.85;;;13.90;99.90;;;;;;5014644;28;87633;-41
2021/12/31 06:30:49;;;;;;;2.97;2.75;;;13.80;99.90;;;;;;4995792;28;90134;-39
2021/12/31 06:33:15;;;;;;;5.07;2.58;;;13.80;99.90;;;;;;5012573;28;90610;-40
2021/12/31 06:35:40;;;;;;;3.85;2.67;;;13.70;99.90;;;;;;5013982;28;89529;-39
2021/12/31 06:38:07;;;;;;;3.00;2.67;;;13.60;99.90;;;;;;5013991;28;88848;-39
2021/12/31 06:40:34;;;;;;;3.38;2.17;;;13.60;99.90;;;;;;5013589;28;90349;-37
2021/12/31 06:43:00;;;;;;;3.30;2.73;;;13.60;99.90;;;;;;5013566;28;89662;-41
2021/12/31 06:45:26;;;;;;;5.55;3.53;;;13.60;99.90;;;;;;5013756;28;89095;-40
2021/12/31 06:47:52;;;;;;;2.40;2.20;;;13.60;99.90;;;;;;5014025;28;87481;-41
2021/12/31 06:50:17;;;;;;;6.80;2.88;;;13.60;99.90;;;;;;5013463;28;90568;-39
2021/12/31 06:52:43;;;;;;;6.93;2.50;;;13.60;99.90;;;;;;5013300;28;90831;-40
2021/12/31 06:55:09;;;;;;;5.38;3.03;;;13.50;99.90;;;;;;5013548;28;88580;-39
2021/12/31 06:57:35;;;;;;;4.78;3.03;;;13.50;99.90;;;;;;5013252;28;89803;-43
2021/12/31 07:00:06;;;;;;;4.50;3.55;;;13.50;99.90;;;;;;5013064;28;90703;-40
2021/12/31 07:02:32;;;;;;;2.53;2.33;;;13.50;99.90;;;;;;5013585;28;89788;-35
2021/12/31 07:04:57;;;;;;;3.80;2.42;;;13.50;99.90;;;;;;5013451;28;89561;-37
2021/12/31 07:07:23;;;;;;;6.43;2.40;;;13.50;99.90;;;;;;5013152;28;88741;-42
2021/12/31 07:09:48;;;;;;;4.60;2.67;;;13.40;99.90;;;;;;5013315;28;90306;-40
2021/12/31 07:12:14;;;;;;;4.20;2.97;;;13.40;99.90;;;;;;5013570;28;88548;-39
2021/12/31 07:14:39;;;;;;;7.80;2.92;;;13.40;99.90;;;;;;5013833;28;89800;-36
2021/12/31 07:17:05;;;;;;;4.50;2.60;;;13.40;99.90;;;;;;5013483;28;87763;-39
2021/12/31 07:19:31;;;;;;;4.70;2.55;;;13.30;99.90;;;;;;5013683;28;90342;-38
2021/12/31 07:21:56;;;;;;;5.95;3.15;;;13.30;99.90;;;;;;5013069;28;90784;-38
2021/12/31 07:24:22;;;;;;;4.07;3.00;;;13.30;99.90;;;;;;5013053;28;90739;-40
2021/12/31 07:26:48;;;;;;;3.00;2.78;;;13.20;99.90;;;;;;5013021;28;87683;-40
2021/12/31 07:29:13;;;;;;;4.68;3.08;;;13.20;99.90;;;;;;5013019;28;90256;-39
2021/12/31 07:31:39;;;;;;;3.00;2.72;;;13.10;99.90;;;;;;5016397;28;89519;-37
2021/12/31 07:34:04;;;;;;;7.32;3.40;;;13.20;99.90;;;;;;5016478;28;89420;-35
2021/12/31 07:36:30;;;;;;;3.15;2.85;;;13.20;99.90;;;;;;5017039;28;87760;-36
2021/12/31 07:39:03;;;;;;;5.88;2.97;;;13.20;99.90;;;;;;5000478;28;90051;-42
2021/12/31 07:41:28;;;;;;;2.92;2.72;;;13.10;99.90;;;;;;4997264;28;89698;-37
2021/12/31 07:43:54;;;;;;;4.05;2.92;;;13.10;99.90;;;;;;5016292;28;89514;-36
2021/12/31 07:46:20;;;;;;;6.82;3.92;;;13.10;99.90;;;;;;5014453;28;87961;-41
2021/12/31 07:48:45;;;;;;;6.07;3.35;;;13.10;99.90;;;;;;5015878;28;90311;-39
2021/12/31 07:51:11;;;;;;;5.65;3.47;;;13.00;99.90;;;;;;5014633;28;89472;-45
2021/12/31 07:53:37;;;;;;;4.25;3.63;;;13.00;99.90;;;;;;5015687;28;89773;-38
2021/12/31 07:56:03;;;;;;;3.85;3.45;;;12.90;99.90;;;;;;4966249;28;88810;-47
2021/12/31 07:58:28;;;;;;;5.85;3.33;;;12.90;99.90;;;;;;5007704;28;91513;-36
2021/12/31 08:00:54;;;;;;;5.35;3.35;;;12.80;99.90;;;;;;4986911;28;91119;-37
2021/12/31 08:03:20;;;;;;;6.78;3.40;;;12.80;99.90;;;;;;5006154;28;89446;-38
2021/12/31 08:05:45;;;;;;;4.40;2.97;;;12.80;99.90;;;;;;5000240;28;87648;-38
2021/12/31 08:08:11;;;;;;;6.47;4.18;;;12.70;99.90;;;;;;4994729;28;89375;-40
2021/12/31 08:10:38;;;;;;;5.70;3.78;;;12.70;99.90;;;;;;4998646;28;90950;-38
2021/12/31 08:13:04;;;;;;;6.00;3.90;;;12.70;99.90;;;;;;5014121;28;90311;-47
2021/12/31 08:15:30;;;;;;;6.00;3.72;;;12.60;99.90;;;;;;5015995;28;87903;-37
2021/12/31 08:17:56;;;;;;;4.80;3.25;;;12.60;99.90;;;;;;5016205;28;88760;-38
2021/12/31 08:20:23;;;;;;;6.88;3.70;;;12.60;99.90;;;;;;5015635;28;88416;-39
2021/12/31 08:22:50;;;;;;;3.90;3.30;;;12.60;99.90;;;;;;5016867;28;89813;-36
2021/12/31 08:25:15;;;;;;;4.30;3.67;;;12.60;99.90;;;;;;5016545;28;87668;-41
2021/12/31 08:27:41;;;;;;;4.72;3.90;;;12.60;99.90;;;;;;5016777;28;90296;-39
2021/12/31 08:30:08;;;;;;;5.63;3.50;;;12.60;99.90;;;;;;5006261;28;89718;-39
2021/12/31 08:32:34;;;;;;;6.95;4.75;;;12.60;99.90;;;;;;4996566;28;89729;-39
2021/12/31 08:35:00;;;;;;;4.57;3.80;;;12.60;99.90;;;;;;4965985;28;89724;-41
2021/12/31 08:37:25;;;;;;;7.53;4.18;;;12.60;99.90;;;;;;5014100;28;90722;-40
2021/12/31 08:39:51;;;;;;;6.32;4.22;;;12.70;99.90;;;;;;5016274;28;89729;-40
2021/12/31 08:42:17;;;;;;;5.63;4.78;;;12.70;99.90;;;;;;5015109;28;89704;-38
2021/12/31 08:44:42;;;;;;;8.85;5.28;;;12.70;99.90;;;;;;5016741;28;88897;-37
2021/12/31 08:47:08;;;;;;;6.53;4.93;;;12.80;99.90;;;;;;5015745;28;90069;-41
2021/12/31 08:49:34;;;;;;;4.40;3.90;;;12.90;99.90;;;;;;5016340;28;88219;-37
2021/12/31 08:52:01;;;;;;;5.13;4.22;;;12.80;99.90;;;;;;5015567;28;89450;-35
2021/12/31 08:54:26;;;;;;;6.38;4.10;;;12.80;99.90;;;;;;5015904;28;87799;-37
2021/12/31 08:56:52;;;;;;;3.92;3.63;;;12.80;99.90;;;;;;5015888;28;90843;-38
2021/12/31 08:59:19;;;;;;;5.25;4.13;;;12.80;99.90;;;;;;4997524;28;89558;-37
2021/12/31 09:01:45;;;;;;;7.95;4.03;;;12.90;99.90;;;;;;5005932;28;89712;-42
2021/12/31 09:04:11;;;;;;;4.28;3.85;;;12.90;99.90;;;;;;4980443;28;88090;-40
2021/12/31 09:06:36;;;;;;;6.40;4.10;;;13.00;99.90;;;;;;4992898;28;90481;-40
2021/12/31 09:09:03;;;;;;;8.02;4.32;;;12.90;99.90;;;;;;4993126;28;89465;-35
2021/12/31 09:11:29;;;;;;;4.05;3.15;;;13.00;99.90;;;;;;4991274;28;89929;-36
2021/12/31 09:13:56;;;;;;;5.10;2.97;;;13.00;99.90;;;;;;4991911;28;88759;-43
2021/12/31 09:16:22;;;;;;;5.05;3.95;;;13.00;99.90;;;;;;4993759;28;90145;-42
2021/12/31 09:18:48;;;;;;;5.10;3.65;;;13.00;99.90;;;;;;4993203;28;90068;-40
2021/12/31 09:21:17;;;;;;;3.60;3.20;;;13.10;99.90;;;;;;4983933;28;91619;-42
2021/12/31 09:23:46;;;;;;;4.25;3.67;;;13.10;99.90;;;;;;4983097;28;88924;-39
2021/12/31 09:26:12;;;;;;;3.97;3.60;;;13.10;99.90;;;;;;4983810;28;89083;-44
2021/12/31 09:28:38;;;;;;;4.15;3.15;;;13.10;99.90;;;;;;4983429;28;90156;-42
2021/12/31 09:31:05;;;;;;;3.78;3.45;;;13.10;99.90;;;;;;4952510;28;89269;-42
2021/12/31 09:33:31;;;;;;;4.60;3.90;;;13.20;99.90;;;;;;4983141;28;88833;-40
2021/12/31 09:35:57;;;;;;;6.05;3.72;;;13.20;99.90;;;;;;4983549;28;91313;-42
2021/12/31 09:38:23;;;;;;;4.88;3.15;;;13.20;99.90;;;;;;4983968;28;89748;-44
2021/12/31 09:40:48;;;;;;;4.07;3.03;;;13.30;99.90;;;;;;4983386;28;89479;-44
2021/12/31 09:43:14;;;;;;;3.97;3.60;;;13.30;99.90;;;;;;4982163;28;87995;-45
2021/12/31 09:45:43;;;;;;;4.68;3.40;;;13.30;99.90;;;;;;4983405;28;89414;-41
2021/12/31 09:48:09;;;;;;;;;;;13.40;99.90;;;;;;4983265;28;89512;-45
2021/12/31 09:50:38;;;;;;;3.97;3.38;;;13.40;99.90;;;;;;4984371;28;88191;-43
2021/12/31 09:53:06;;;;;;;5.40;3.53;;;13.40;99.90;;;;;;4982014;28;88525;-40
2021/12/31 09:55:44;;;;;;;4.37;3.10;;;13.50;99.90;;;;;;4965062;28;91382;-42
2021/12/31 09:58:12;;;;;;;8.48;4.45;;;13.50;99.90;;;;;;4982013;28;89702;-44
2021/12/31 10:00:41;;;;;;;7.63;4.07;;;13.50;99.90;;;;;;4982565;28;89928;-42
2021/12/31 10:03:22;;;;;;;6.53;3.65;;;13.60;99.90;;;;;;4982518;28;89572;-40
2021/12/31 10:05:51;;;;;;;4.10;3.70;;;13.50;99.90;;;;;;4970602;28;90654;-45
2021/12/31 10:08:30;;;;;;;7.72;4.05;;;13.60;99.90;;;;;;4979391;28;89822;-40
2021/12/31 10:11:06;;;;;;;4.90;4.40;;;13.60;99.90;;;;;;4982710;28;89436;-43
2021/12/31 10:13:34;;;;;;;7.68;4.40;;;13.50;99.90;;;;;;4981218;28;89661;-39
2021/12/31 10:16:00;;;;;;;5.17;4.10;;;13.60;99.90;;;;;;4982470;28;90285;-43
2021/12/31 10:18:34;;;;;;;4.93;3.40;;;13.60;99.90;;;;;;4982520;28;89653;-44
2021/12/31 10:21:01;;;;;;;6.35;4.75;;;13.50;99.90;;;;;;4985748;28;89536;-45
2021/12/31 10:23:26;;;;;;;8.80;4.82;;;13.40;99.90;;;;;;4983270;28;88351;-47
2021/12/31 10:26:05;;;;;;;5.25;3.83;;;13.40;99.90;;;;;;4965748;28;90274;-43
2021/12/31 10:28:31;;;;;;;6.88;4.82;;;13.40;99.90;;;;;;4982370;28;90253;-41
2021/12/31 10:31:12;;;;;;;7.65;4.57;;;13.40;99.90;;;;;;4981847;28;88872;-41
2021/12/31 10:33:41;;;;;;;4.45;4.05;;;13.40;99.90;;;;;;4963026;28;87630;-43
2021/12/31 10:36:06;;;;;;;7.03;3.95;;;13.40;99.90;;;;;;4989833;28;89044;-45
2021/12/31 10:38:36;;;;;;;5.22;4.47;;;13.40;99.90;;;;;;4985054;28;90618;-42
2021/12/31 10:41:04;;;;;;;5.35;3.85;;;13.40;99.90;;;;;;4991208;28;89435;-44
2021/12/31 10:43:29;;;;;;;7.60;4.50;;;13.40;99.90;;;;;;4984950;28;87918;-40
2021/12/31 10:46:04;;;;;;;7.13;3.97;;;13.40;99.90;;;;;;4981657;28;90062;-44
2021/12/31 10:48:41;;;;;;;11.25;5.22;;;13.40;99.90;;;;;;4982718;28;89787;-41
2021/12/31 10:54:47;;;;;;;6.22;4.13;;;13.40;99.90;;;;;;4981738;28;89574;-34
2021/12/31 10:57:10;;;;;;;4.80;4.05;;;13.40;99.90;;;;;;4981926;28;90316;-42
2021/12/31 10:59:37;;;;;;;6.40;4.47;;;13.30;99.90;;;;;;4979493;28;90060;-43
2021/12/31 11:02:05;;;;;;;5.70;4.75;;;13.40;99.90;;;;;;4981317;28;89569;-41
2021/12/31 11:04:33;;;;;;;4.82;4.40;;;13.40;99.90;;;;;;4981790;28;89016;-38
2021/12/31 11:06:59;;;;;;;6.85;4.32;;;13.50;99.90;;;;;;4986012;28;90733;-40
2021/12/31 11:09:26;;;;;;;8.65;4.53;;;13.40;99.90;;;;;;4985380;28;89951;-42
2021/12/31 11:11:53;;;;;;;5.50;4.68;;;13.40;99.90;;;;;;4984860;28;90122;-45
2021/12/31 11:14:18;;;;;;;5.97;5.13;;;13.40;99.90;;;;;;4985158;28;88084;-39
2021/12/31 11:16:44;;;;;;;5.90;4.75;;;13.40;99.90;;;;;;4985584;28;89222;-41
2021/12/31 11:19:10;;;;;;;5.35;4.85;;;13.40;99.90;;;;;;4984431;28;89625;-44
2021/12/31 11:21:37;;;;;;;5.43;4.63;;;13.40;99.90;;;;;;4984976;28;88537;-41
2021/12/31 11:24:33;;;;;;;6.70;4.85;;;13.40;99.90;;;;;;4978938;28;87949;-42
2021/12/31 11:27:19;;;;;;;6.55;5.93;;;13.30;99.90;;;;;;4977104;28;89953;-41
2021/12/31 11:29:45;;;;;;;7.60;5.38;;;13.30;99.90;;;;;;4977322;28;89647;-44
2021/12/31 11:32:10;;;;;;;6.05;4.93;;;13.30;99.90;;;;;;4975863;28;90201;-43
2021/12/31 11:34:37;;;;;;;9.00;5.75;;;13.20;99.90;;;;;;4976882;28;88424;-39
2021/12/31 11:37:03;;;;;;;8.23;6.18;;;13.20;99.90;;;;;;4976060;28;90669;-41
2021/12/31 11:39:36;;;;;;;7.47;5.55;;;13.20;99.90;;;;;;4981275;28;89470;-44
2021/12/31 11:42:07;;;;;;;6.40;5.75;;;13.20;99.90;;;;;;4980512;28;89938;-41
2021/12/31 11:44:36;;;;;;;6.20;5.18;;;13.20;99.90;;;;;;4984595;28;88550;-43
2021/12/31 11:47:14;;;;;;;6.25;5.38;;;13.20;99.90;;;;;;4985454;28;87952;-42
2021/12/31 11:49:39;;;;;;;;;;;13.10;99.90;;;;;;4984941;28;90702;-41
2021/12/31 11:52:08;;;;;;;6.32;5.70;;;13.10;99.90;;;;;;4984059;28;89114;-37
2021/12/31 11:54:39;;;;;;;8.90;6.20;;;13.10;99.90;;;;;;4981616;28;89388;-44
2021/12/31 11:57:17;;;;;;;9.85;6.43;;;13.10;99.90;;;;;;4984124;28;90685;-41
2021/12/31 11:59:45;;;;;;;9.32;6.55;;;13.10;99.90;;;;;;4984084;28;90191;-42
2021/12/31 12:02:17;;;;;;;6.95;5.68;;;13.00;99.90;;;;;;4983404;28;89596;-40
2021/12/31 12:04:50;;;;;;;10.63;7.43;;;13.00;99.90;;;;;;4984116;28;87674;-43
2021/12/31 12:07:35;;;;;;;8.95;6.15;;;13.00;99.90;;;;;;4982614;28;89054;-44
2021/12/31 12:10:01;;;;;;;7.47;5.72;;;13.00;99.90;;;;;;4983855;28;90052;-38
2021/12/31 12:12:37;;;;;;;7.30;5.88;;;12.90;99.90;;;;;;4977285;28;89764;-42
2021/12/31 12:15:23;;;;;;;8.23;5.88;;;13.00;99.90;;;;;;4983900;28;88282;-45
2021/12/31 12:17:49;;;;;;;9.43;7.03;;;13.00;99.90;;;;;;4977827;28;90246;-41
2021/12/31 12:20:18;;;;;;;12.00;6.95;;;13.00;99.90;;;;;;4982884;28;90836;-42
2021/12/31 12:22:55;;;;;;;9.30;6.47;;;13.00;99.90;;;;;;4979300;28;90451;-41
2021/12/31 12:25:26;;;;;;;7.43;6.72;;;13.00;99.90;;;;;;4979115;28;88439;-43
2021/12/31 12:27:56;;;;;;;10.27;7.47;;;13.00;99.90;;;;;;4973901;28;90536;-41
2021/12/31 12:30:23;;;;;;;9.73;6.85;;;13.00;99.90;;;;;;4957694;28;89654;-43
2021/12/31 12:35:32;;;;;;;7.60;6.82;;;12.90;99.90;;;;;;4975821;28;88284;-41
2021/12/31 12:38:07;;;;;;;9.40;6.80;;;12.90;99.90;;;;;;4972964;28;90558;-41
2021/12/31 12:40:41;;;;;;;9.93;7.65;;;13.00;99.90;;;;;;4978716;28;90149;-42
2021/12/31 12:43:15;;;;;;;8.98;6.13;;;12.90;99.90;;;;;;4979313;28;89379;-41
2021/12/31 12:45:44;;;;;;;12.82;6.88;;;12.80;99.90;;;;;;4972028;28;89077;-39
2021/12/31 12:48:10;;;;;;;10.30;6.63;;;12.80;99.90;;;;;;4973572;28;90659;-41
2021/12/31 12:50:36;;;;;;;8.02;7.00;;;12.60;99.90;;;;;;4973060;28;88621;-41
2021/12/31 12:53:03;;;;;;;12.15;8.57;;;12.60;99.90;;;;;;4979618;28;89572;-43